RRR6245 EGVN-EGPF
Flight info
| Callsign | RRR6245 |
|---|---|
| Flight time | 0h 53m |
| Altitude | 32000 |
| Route | DCT DTY UY53 SAPCO UN57 POL UN601 RIBEL DCT ASLIB ASLIB1G |
| Aircraft | A400/H-SDE2E3FGHIJ4J5M1RWXY/LB1D1 |
Departure
| Time | 2026-04-26 12:28 |
|---|---|
| Airport | RAF Brize Norton (EGVN) |
Arrival
| Time | 2026-04-26 13:21 |
|---|---|
| Airport | Glasgow Airport (EGPF) |
| Time | Latitude | Longitude | Altitude | Speed | Heading |
|---|---|---|---|---|---|
| 2026-04-26 11:57 | 51.75531 | -1.57580 | 273 ft | 0 kts | 117° |
| 2026-04-26 12:19 | 51.75516 | -1.57523 | 273 ft | 3 kts | 95° |
| 2026-04-26 12:19 | 51.75551 | -1.57463 | 273 ft | 8 kts | 23° |
| 2026-04-26 12:19 | 51.75643 | -1.57411 | 273 ft | 21 kts | 19° |
| 2026-04-26 12:19 | 51.75804 | -1.57327 | 278 ft | 22 kts | 19° |
| 2026-04-26 12:20 | 51.75908 | -1.57292 | 273 ft | 9 kts | 343° |
| 2026-04-26 12:20 | 51.75929 | -1.57374 | 273 ft | 13 kts | 279° |
| 2026-04-26 12:20 | 51.75874 | -1.57528 | 273 ft | 21 kts | 206° |
| 2026-04-26 12:20 | 51.75734 | -1.57603 | 273 ft | 20 kts | 197° |
| 2026-04-26 12:21 | 51.75648 | -1.57650 | 273 ft | 19 kts | 198° |
| 2026-04-26 12:21 | 51.75523 | -1.57729 | 273 ft | 19 kts | 206° |
| 2026-04-26 12:21 | 51.75411 | -1.57825 | 274 ft | 19 kts | 209° |
| 2026-04-26 12:21 | 51.75287 | -1.57930 | 274 ft | 21 kts | 208° |
| 2026-04-26 12:22 | 51.75161 | -1.58039 | 276 ft | 20 kts | 209° |
| 2026-04-26 12:22 | 51.75132 | -1.58064 | 276 ft | 0 kts | 208° |
| 2026-04-26 12:23 | 51.75082 | -1.58107 | 274 ft | 15 kts | 208° |
| 2026-04-26 12:23 | 51.74961 | -1.58213 | 274 ft | 23 kts | 209° |
| 2026-04-26 12:24 | 51.74824 | -1.58330 | 273 ft | 21 kts | 207° |
| 2026-04-26 12:24 | 51.74694 | -1.58441 | 274 ft | 22 kts | 212° |
| 2026-04-26 12:24 | 51.74626 | -1.58650 | 274 ft | 22 kts | 253° |
| 2026-04-26 12:25 | 51.74538 | -1.59125 | 273 ft | 22 kts | 251° |
| 2026-04-26 12:25 | 51.74494 | -1.59363 | 273 ft | 22 kts | 254° |
| 2026-04-26 12:25 | 51.74448 | -1.59604 | 273 ft | 23 kts | 252° |
| 2026-04-26 12:25 | 51.74436 | -1.59843 | 273 ft | 22 kts | 296° |
| 2026-04-26 12:26 | 51.74506 | -1.60030 | 273 ft | 17 kts | 325° |
| 2026-04-26 12:26 | 51.74618 | -1.60098 | 276 ft | 17 kts | 346° |
| 2026-04-26 12:26 | 51.74676 | -1.60057 | 273 ft | 1 kts | 72° |
| 2026-04-26 12:26 | 51.74677 | -1.60051 | 273 ft | 0 kts | 73° |
| 2026-04-26 12:27 | 51.74700 | -1.59920 | 272 ft | 56 kts | 73° |
| 2026-04-26 12:27 | 51.74927 | -1.58695 | 326 ft | 161 kts | 73° |
| 2026-04-26 12:28 | 51.75253 | -1.56851 | 1200 ft | 176 kts | 79° |
| 2026-04-26 12:28 | 51.75828 | -1.54993 | 1996 ft | 209 kts | 51° |
| 2026-04-26 12:28 | 51.76977 | -1.53281 | 2743 ft | 241 kts | 40° |
| 2026-04-26 12:28 | 51.78386 | -1.51600 | 3688 ft | 259 kts | 37° |
| 2026-04-26 12:29 | 51.79897 | -1.49955 | 4984 ft | 264 kts | 34° |
| 2026-04-26 12:29 | 51.81465 | -1.48348 | 6341 ft | 269 kts | 32° |
| 2026-04-26 12:29 | 51.84727 | -1.45128 | 8869 ft | 280 kts | 31° |
| 2026-04-26 12:30 | 51.86419 | -1.43459 | 10069 ft | 289 kts | 30° |
| 2026-04-26 12:30 | 51.88163 | -1.41726 | 11121 ft | 301 kts | 31° |
| 2026-04-26 12:30 | 51.89975 | -1.39915 | 12171 ft | 310 kts | 31° |
| 2026-04-26 12:31 | 51.93735 | -1.36131 | 14340 ft | 325 kts | 31° |
| 2026-04-26 12:31 | 51.95673 | -1.34169 | 15352 ft | 331 kts | 31° |
| 2026-04-26 12:31 | 51.97644 | -1.32170 | 16399 ft | 336 kts | 31° |
| 2026-04-26 12:31 | 51.99648 | -1.30135 | 17464 ft | 342 kts | 31° |
| 2026-04-26 12:32 | 52.01678 | -1.28072 | 18522 ft | 348 kts | 32° |
| 2026-04-26 12:32 | 52.03742 | -1.25972 | 19489 ft | 353 kts | 31° |
| 2026-04-26 12:32 | 52.07966 | -1.21671 | 21368 ft | 363 kts | 31° |
| 2026-04-26 12:33 | 52.10122 | -1.19473 | 22333 ft | 369 kts | 31° |
| 2026-04-26 12:33 | 52.12315 | -1.17248 | 23260 ft | 374 kts | 29° |
| 2026-04-26 12:33 | 52.14647 | -1.15345 | 24120 ft | 377 kts | 20° |
| 2026-04-26 12:33 | 52.17171 | -1.14137 | 24832 ft | 379 kts | 8° |
| 2026-04-26 12:34 | 52.19801 | -1.13829 | 25542 ft | 380 kts | 355° |
| 2026-04-26 12:34 | 52.22411 | -1.14476 | 26217 ft | 379 kts | 342° |
| 2026-04-26 12:34 | 52.24920 | -1.15802 | 26873 ft | 380 kts | 336° |
| 2026-04-26 12:34 | 52.27393 | -1.17374 | 27515 ft | 382 kts | 334° |
| 2026-04-26 12:35 | 52.29817 | -1.19044 | 28197 ft | 383 kts | 333° |
| 2026-04-26 12:35 | 52.32271 | -1.20778 | 28832 ft | 385 kts | 332° |
| 2026-04-26 12:35 | 52.34743 | -1.22525 | 29397 ft | 388 kts | 333° |
| 2026-04-26 12:35 | 52.37243 | -1.24272 | 29916 ft | 392 kts | 333° |
| 2026-04-26 12:36 | 52.39763 | -1.26009 | 30451 ft | 394 kts | 333° |
| 2026-04-26 12:36 | 52.42286 | -1.27730 | 30986 ft | 392 kts | 333° |
| 2026-04-26 12:36 | 52.44805 | -1.29438 | 31576 ft | 390 kts | 333° |
| 2026-04-26 12:36 | 52.47306 | -1.31129 | 32078 ft | 388 kts | 333° |
| 2026-04-26 12:37 | 52.49810 | -1.32827 | 32264 ft | 390 kts | 333° |
| 2026-04-26 12:37 | 52.54826 | -1.36194 | 32266 ft | 389 kts | 334° |
| 2026-04-26 12:38 | 52.59893 | -1.39307 | 32266 ft | 388 kts | 335° |
| 2026-04-26 12:38 | 52.64977 | -1.42335 | 32264 ft | 388 kts | 335° |
| 2026-04-26 12:39 | 52.70053 | -1.45378 | 32264 ft | 388 kts | 335° |
| 2026-04-26 12:39 | 52.75092 | -1.48430 | 32317 ft | 388 kts | 335° |
| 2026-04-26 12:40 | 52.80154 | -1.51510 | 32311 ft | 387 kts | 335° |
| 2026-04-26 12:40 | 52.85217 | -1.54602 | 32320 ft | 388 kts | 335° |
| 2026-04-26 12:41 | 52.90287 | -1.57706 | 32316 ft | 389 kts | 335° |
| 2026-04-26 12:41 | 52.95360 | -1.60818 | 32320 ft | 389 kts | 335° |
| 2026-04-26 12:42 | 53.00434 | -1.63937 | 32321 ft | 389 kts | 335° |
| 2026-04-26 12:42 | 53.05492 | -1.67054 | 32313 ft | 387 kts | 335° |
| 2026-04-26 12:43 | 53.10547 | -1.70178 | 32307 ft | 387 kts | 334° |
| 2026-04-26 12:43 | 53.15594 | -1.73307 | 32310 ft | 387 kts | 334° |
| 2026-04-26 12:44 | 53.20614 | -1.76426 | 32309 ft | 387 kts | 334° |
| 2026-04-26 12:44 | 53.25656 | -1.79565 | 32317 ft | 386 kts | 334° |
| 2026-04-26 12:45 | 53.30683 | -1.82703 | 32312 ft | 385 kts | 334° |
| 2026-04-26 12:45 | 53.35706 | -1.85848 | 32302 ft | 385 kts | 334° |
| 2026-04-26 12:46 | 53.40727 | -1.89000 | 32298 ft | 385 kts | 334° |
| 2026-04-26 12:46 | 53.45742 | -1.92156 | 32302 ft | 385 kts | 334° |
| 2026-04-26 12:47 | 53.50764 | -1.95324 | 32307 ft | 385 kts | 334° |
| 2026-04-26 12:47 | 53.55785 | -1.98499 | 32305 ft | 386 kts | 334° |
| 2026-04-26 12:48 | 53.60807 | -2.01682 | 32304 ft | 385 kts | 334° |
| 2026-04-26 12:48 | 53.65794 | -2.04851 | 32305 ft | 385 kts | 334° |
| 2026-04-26 12:49 | 53.70815 | -2.08050 | 32299 ft | 385 kts | 334° |
| 2026-04-26 12:49 | 53.75830 | -2.11291 | 32300 ft | 386 kts | 333° |
| 2026-04-26 12:50 | 53.80818 | -2.14670 | 32298 ft | 386 kts | 332° |
| 2026-04-26 12:50 | 53.85796 | -2.18093 | 32298 ft | 386 kts | 332° |
| 2026-04-26 12:51 | 53.90776 | -2.21515 | 32298 ft | 386 kts | 332° |
| 2026-04-26 12:51 | 53.95759 | -2.24938 | 32298 ft | 386 kts | 332° |
| 2026-04-26 12:52 | 54.00697 | -2.28364 | 32299 ft | 384 kts | 329° |
| 2026-04-26 12:52 | 54.05405 | -2.32544 | 32293 ft | 381 kts | 326° |
| 2026-04-26 12:53 | 54.10059 | -2.36868 | 32295 ft | 381 kts | 326° |
| 2026-04-26 12:53 | 54.14712 | -2.41227 | 32294 ft | 381 kts | 325° |
| 2026-04-26 12:54 | 54.19358 | -2.45597 | 32296 ft | 381 kts | 325° |
| 2026-04-26 12:54 | 54.23996 | -2.49971 | 32299 ft | 381 kts | 325° |
| 2026-04-26 12:55 | 54.28626 | -2.54349 | 32294 ft | 380 kts | 325° |
| 2026-04-26 12:55 | 54.33247 | -2.58732 | 32288 ft | 379 kts | 325° |
| 2026-04-26 12:56 | 54.37864 | -2.63121 | 32290 ft | 379 kts | 325° |
| 2026-04-26 12:56 | 54.42479 | -2.67520 | 32280 ft | 379 kts | 324° |
| 2026-04-26 12:57 | 54.47109 | -2.71946 | 32295 ft | 382 kts | 324° |
| 2026-04-26 12:57 | 54.49438 | -2.74177 | 32066 ft | 383 kts | 324° |
| 2026-04-26 12:57 | 54.51737 | -2.76381 | 31810 ft | 384 kts | 324° |
| 2026-04-26 12:58 | 54.56414 | -2.80874 | 31300 ft | 386 kts | 325° |
| 2026-04-26 12:58 | 54.58759 | -2.83132 | 31050 ft | 387 kts | 325° |
| 2026-04-26 12:58 | 54.61117 | -2.85404 | 30762 ft | 389 kts | 325° |
| 2026-04-26 12:58 | 54.63485 | -2.87691 | 30217 ft | 391 kts | 326° |
| 2026-04-26 12:59 | 54.65857 | -2.89983 | 29518 ft | 391 kts | 326° |
| 2026-04-26 12:59 | 54.68225 | -2.92272 | 28939 ft | 388 kts | 326° |
| 2026-04-26 12:59 | 54.70578 | -2.94550 | 28540 ft | 387 kts | 326° |
| 2026-04-26 12:59 | 54.72917 | -2.96819 | 28101 ft | 384 kts | 326° |
| 2026-04-26 13:00 | 54.75241 | -2.99076 | 27638 ft | 382 kts | 326° |
| 2026-04-26 13:00 | 54.77556 | -3.01328 | 27182 ft | 380 kts | 326° |
| 2026-04-26 13:00 | 54.79851 | -3.03564 | 26733 ft | 377 kts | 326° |
| 2026-04-26 13:00 | 54.82134 | -3.05791 | 26375 ft | 375 kts | 326° |
| 2026-04-26 13:01 | 54.84404 | -3.08010 | 26003 ft | 374 kts | 326° |
| 2026-04-26 13:01 | 54.86665 | -3.10223 | 25591 ft | 372 kts | 326° |
| 2026-04-26 13:01 | 54.88916 | -3.12429 | 25231 ft | 370 kts | 327° |
| 2026-04-26 13:01 | 54.91156 | -3.14627 | 24881 ft | 369 kts | 327° |
| 2026-04-26 13:02 | 54.93356 | -3.16788 | 24521 ft | 367 kts | 327° |
| 2026-04-26 13:02 | 54.95573 | -3.18969 | 24167 ft | 366 kts | 327° |
| 2026-04-26 13:02 | 54.97785 | -3.21148 | 23811 ft | 364 kts | 327° |
| 2026-04-26 13:02 | 54.99983 | -3.23316 | 23407 ft | 362 kts | 327° |
| 2026-04-26 13:03 | 55.02166 | -3.25471 | 23060 ft | 360 kts | 327° |
| 2026-04-26 13:03 | 55.04338 | -3.27619 | 22710 ft | 358 kts | 327° |
| 2026-04-26 13:03 | 55.06497 | -3.29757 | 22367 ft | 356 kts | 327° |
| 2026-04-26 13:03 | 55.08642 | -3.31883 | 22028 ft | 354 kts | 327° |
| 2026-04-26 13:04 | 55.10779 | -3.34003 | 21677 ft | 352 kts | 327° |
| 2026-04-26 13:04 | 55.12898 | -3.36108 | 21335 ft | 350 kts | 327° |
| 2026-04-26 13:04 | 55.15015 | -3.38214 | 20994 ft | 349 kts | 327° |
| 2026-04-26 13:04 | 55.17118 | -3.40309 | 20648 ft | 347 kts | 327° |
| 2026-04-26 13:05 | 55.19209 | -3.42394 | 20358 ft | 345 kts | 327° |
| 2026-04-26 13:05 | 55.21294 | -3.44477 | 19918 ft | 345 kts | 327° |
| 2026-04-26 13:05 | 55.23370 | -3.46550 | 19298 ft | 341 kts | 326° |
| 2026-04-26 13:05 | 55.25421 | -3.48601 | 18752 ft | 338 kts | 326° |
| 2026-04-26 13:06 | 55.27454 | -3.50636 | 18188 ft | 335 kts | 326° |
| 2026-04-26 13:06 | 55.29473 | -3.52661 | 17655 ft | 333 kts | 326° |
| 2026-04-26 13:06 | 55.30802 | -3.53996 | 17322 ft | 331 kts | 326° |
| 2026-04-26 13:06 | 55.33454 | -3.56660 | 16643 ft | 328 kts | 326° |
| 2026-04-26 13:07 | 55.35433 | -3.58652 | 16134 ft | 326 kts | 326° |
| 2026-04-26 13:07 | 55.37395 | -3.60629 | 15626 ft | 324 kts | 326° |
| 2026-04-26 13:07 | 55.38690 | -3.61935 | 15306 ft | 323 kts | 326° |
| 2026-04-26 13:07 | 55.40633 | -3.63897 | 14800 ft | 321 kts | 326° |
| 2026-04-26 13:08 | 55.42563 | -3.65847 | 14302 ft | 319 kts | 326° |
| 2026-04-26 13:08 | 55.44482 | -3.67788 | 13782 ft | 317 kts | 326° |
| 2026-04-26 13:08 | 55.46383 | -3.69714 | 13256 ft | 315 kts | 326° |
| 2026-04-26 13:08 | 55.48276 | -3.71633 | 12798 ft | 313 kts | 326° |
| 2026-04-26 13:09 | 55.50159 | -3.73545 | 12330 ft | 310 kts | 326° |
| 2026-04-26 13:09 | 55.51980 | -3.75389 | 12056 ft | 297 kts | 326° |
| 2026-04-26 13:09 | 55.53772 | -3.77213 | 11571 ft | 297 kts | 326° |
| 2026-04-26 13:09 | 55.55565 | -3.79043 | 10951 ft | 297 kts | 325° |
| 2026-04-26 13:10 | 55.57339 | -3.80852 | 10473 ft | 292 kts | 325° |
| 2026-04-26 13:10 | 55.59074 | -3.82623 | 10022 ft | 290 kts | 325° |
| 2026-04-26 13:10 | 55.60817 | -3.84406 | 9547 ft | 288 kts | 326° |
| 2026-04-26 13:10 | 55.62546 | -3.86177 | 9098 ft | 286 kts | 326° |
| 2026-04-26 13:11 | 55.64257 | -3.87929 | 8751 ft | 279 kts | 326° |
| 2026-04-26 13:11 | 55.65902 | -3.89610 | 8467 ft | 268 kts | 326° |
| 2026-04-26 13:11 | 55.67500 | -3.91249 | 8093 ft | 262 kts | 326° |
| 2026-04-26 13:11 | 55.69075 | -3.92868 | 7694 ft | 260 kts | 326° |
| 2026-04-26 13:12 | 55.70690 | -3.94292 | 7296 ft | 259 kts | 333° |
| 2026-04-26 13:12 | 55.72340 | -3.95499 | 6874 ft | 260 kts | 335° |
| 2026-04-26 13:12 | 55.74009 | -3.96663 | 6568 ft | 256 kts | 335° |
| 2026-04-26 13:12 | 55.75660 | -3.97811 | 6324 ft | 253 kts | 336° |
| 2026-04-26 13:13 | 55.77297 | -3.98952 | 6258 ft | 253 kts | 335° |
| 2026-04-26 13:13 | 55.78917 | -4.00084 | 6089 ft | 248 kts | 335° |
| 2026-04-26 13:13 | 55.80527 | -4.01213 | 5697 ft | 249 kts | 335° |
| 2026-04-26 13:13 | 55.82145 | -4.02350 | 5323 ft | 249 kts | 336° |
| 2026-04-26 13:14 | 55.83752 | -4.03480 | 4988 ft | 247 kts | 336° |
| 2026-04-26 13:14 | 55.85350 | -4.04605 | 4612 ft | 247 kts | 336° |
| 2026-04-26 13:14 | 55.86946 | -4.05729 | 4262 ft | 246 kts | 335° |
| 2026-04-26 13:14 | 55.88528 | -4.06845 | 3930 ft | 244 kts | 335° |
| 2026-04-26 13:15 | 55.90104 | -4.07957 | 3593 ft | 243 kts | 335° |
| 2026-04-26 13:15 | 55.91675 | -4.09067 | 3269 ft | 242 kts | 336° |
| 2026-04-26 13:15 | 55.93236 | -4.10171 | 3032 ft | 241 kts | 336° |
| 2026-04-26 13:15 | 55.94790 | -4.11273 | 3003 ft | 241 kts | 336° |
| 2026-04-26 13:16 | 55.96307 | -4.12346 | 3002 ft | 229 kts | 336° |
| 2026-04-26 13:16 | 55.97705 | -4.13331 | 3006 ft | 204 kts | 335° |
| 2026-04-26 13:16 | 55.98896 | -4.14469 | 3011 ft | 189 kts | 318° |
| 2026-04-26 13:16 | 55.99668 | -4.16279 | 3012 ft | 182 kts | 288° |
| 2026-04-26 13:17 | 55.99152 | -4.20444 | 3007 ft | 177 kts | 240° |
| 2026-04-26 13:17 | 55.98429 | -4.22214 | 3005 ft | 177 kts | 229° |
| 2026-04-26 13:18 | 55.96739 | -4.25424 | 2693 ft | 177 kts | 226° |
| 2026-04-26 13:18 | 55.95900 | -4.27005 | 2429 ft | 177 kts | 226° |
| 2026-04-26 13:18 | 55.94196 | -4.30208 | 1913 ft | 179 kts | 226° |
| 2026-04-26 13:19 | 55.93350 | -4.31795 | 1686 ft | 171 kts | 226° |
| 2026-04-26 13:19 | 55.92571 | -4.33257 | 1462 ft | 152 kts | 226° |
| 2026-04-26 13:19 | 55.91894 | -4.34526 | 1253 ft | 131 kts | 226° |
| 2026-04-26 13:19 | 55.91291 | -4.35657 | 1070 ft | 122 kts | 226° |
| 2026-04-26 13:20 | 55.90713 | -4.36741 | 902 ft | 119 kts | 227° |
| 2026-04-26 13:20 | 55.90141 | -4.37813 | 705 ft | 120 kts | 227° |
| 2026-04-26 13:20 | 55.89566 | -4.38851 | 471 ft | 125 kts | 224° |
| 2026-04-26 13:20 | 55.88981 | -4.40010 | 382 ft | 124 kts | 228° |
| 2026-04-26 13:21 | 55.88396 | -4.41089 | 222 ft | 119 kts | 229° |
| 2026-04-26 13:21 | 55.88021 | -4.41784 | 126 ft | 118 kts | 228° |
| 2026-04-26 13:21 | 55.87322 | -4.43089 | 38 ft | 82 kts | 228° |
| 2026-04-26 13:21 | 55.87027 | -4.43615 | 38 ft | 38 kts | 214° |
| 2026-04-26 13:22 | 55.86841 | -4.43731 | 38 ft | 23 kts | 200° |
| 2026-04-26 13:22 | 55.86703 | -4.43830 | 38 ft | 20 kts | 208° |
| 2026-04-26 13:22 | 55.86634 | -4.43956 | 38 ft | 14 kts | 224° |
| 2026-04-26 13:22 | 55.86553 | -4.44035 | 38 ft | 11 kts | 172° |
| 2026-04-26 13:23 | 55.86490 | -4.43976 | 38 ft | 10 kts | 158° |
| 2026-04-26 13:23 | 55.86422 | -4.43911 | 38 ft | 11 kts | 156° |
| 2026-04-26 13:23 | 55.86384 | -4.43905 | 38 ft | 9 kts | 210° |
| 2026-04-26 13:23 | 55.86364 | -4.43953 | 38 ft | 3 kts | 270° |
| 2026-04-26 13:24 | 55.86358 | -4.43990 | 36 ft | 4 kts | 243° |
| 2026-04-26 13:24 | 55.86348 | -4.44022 | 38 ft | 0 kts | 242° |